sensor_id;sensor_type;location;lat;lon;timestamp;pressure;altitude;pressure_sealevel;temperature;humidity
5522;BME280;2783;48.730;8.006;2023-04-23T00:02:06;99509.28;;;15.72;100.00
5522;BME280;2783;48.730;8.006;2023-04-23T00:04:36;99512.16;;;15.69;100.00
5522;BME280;2783;48.730;8.006;2023-04-23T00:07:02;99510.41;;;15.68;100.00
5522;BME280;2783;48.730;8.006;2023-04-23T00:09:27;99503.72;;;15.61;100.00
5522;BME280;2783;48.730;8.006;2023-04-23T00:11:54;99503.91;;;15.58;100.00
5522;BME280;2783;48.730;8.006;2023-04-23T00:14:20;99514.41;;;15.47;100.00
5522;BME280;2783;48.730;8.006;2023-04-23T00:16:45;99510.97;;;15.45;100.00
5522;BME280;2783;48.730;8.006;2023-04-23T00:19:11;99517.63;;;15.38;100.00
5522;BME280;2783;48.730;8.006;2023-04-23T00:21:36;99515.88;;;15.37;100.00
5522;BME280;2783;48.730;8.006;2023-04-23T00:24:01;99518.56;;;15.37;100.00
5522;BME280;2783;48.730;8.006;2023-04-23T00:26:27;99522.06;;;15.39;100.00
5522;BME280;2783;48.730;8.006;2023-04-23T00:28:52;99525.09;;;15.33;100.00
5522;BME280;2783;48.730;8.006;2023-04-23T00:31:18;99519.91;;;15.30;100.00
5522;BME280;2783;48.730;8.006;2023-04-23T00:33:43;99522.94;;;15.24;100.00
5522;BME280;2783;48.730;8.006;2023-04-23T00:36:08;99518.16;;;15.29;100.00
5522;BME280;2783;48.730;8.006;2023-04-23T00:38:33;99527.41;;;15.24;100.00
5522;BME280;2783;48.730;8.006;2023-04-23T00:40:59;99525.50;;;15.26;100.00
5522;BME280;2783;48.730;8.006;2023-04-23T00:43:24;99526.38;;;15.26;100.00
5522;BME280;2783;48.730;8.006;2023-04-23T00:45:50;99524.34;;;15.16;100.00
5522;BME280;2783;48.730;8.006;2023-04-23T00:48:15;99521.75;;;15.14;100.00
5522;BME280;2783;48.730;8.006;2023-04-23T00:50:40;99525.22;;;15.16;100.00
5522;BME280;2783;48.730;8.006;2023-04-23T00:53:06;99523.84;;;15.09;100.00
5522;BME280;2783;48.730;8.006;2023-04-23T00:55:31;99518.13;;;15.15;100.00
5522;BME280;2783;48.730;8.006;2023-04-23T00:57:57;99523.31;;;15.18;100.00
5522;BME280;2783;48.730;8.006;2023-04-23T01:00:22;99520.22;;;15.10;100.00
5522;BME280;2783;48.730;8.006;2023-04-23T01:02:48;99524.00;;;15.06;100.00
5522;BME280;2783;48.730;8.006;2023-04-23T01:05:14;99524.72;;;14.94;100.00
5522;BME280;2783;48.730;8.006;2023-04-23T01:07:40;99522.22;;;14.91;100.00
5522;BME280;2783;48.730;8.006;2023-04-23T01:10:07;99518.34;;;14.81;100.00
5522;BME280;2783;48.730;8.006;2023-04-23T01:12:33;99513.28;;;14.77;100.00
5522;BME280;2783;48.730;8.006;2023-04-23T01:14:59;99509.91;;;14.73;100.00
5522;BME280;2783;48.730;8.006;2023-04-23T01:17:24;99512.75;;;14.70;100.00
5522;BME280;2783;48.730;8.006;2023-04-23T01:19:50;99521.56;;;14.72;100.00
5522;BME280;2783;48.730;8.006;2023-04-23T01:22:16;99530.81;;;14.82;100.00
5522;BME280;2783;48.730;8.006;2023-04-23T01:24:41;99525.72;;;14.78;100.00
5522;BME280;2783;48.730;8.006;2023-04-23T01:27:07;99532.97;;;14.76;100.00
5522;BME280;2783;48.730;8.006;2023-04-23T01:29:32;99533.75;;;14.78;100.00
5522;BME280;2783;48.730;8.006;2023-04-23T01:31:58;99534.97;;;14.72;100.00
5522;BME280;2783;48.730;8.006;2023-04-23T01:34:24;99541.34;;;14.70;100.00
5522;BME280;2783;48.730;8.006;2023-04-23T01:36:49;99529.97;;;14.66;100.00
5522;BME280;2783;48.730;8.006;2023-04-23T01:39:16;99533.75;;;14.62;100.00
5522;BME280;2783;48.730;8.006;2023-04-23T01:41:41;99535.84;;;14.73;100.00
5522;BME280;2783;48.730;8.006;2023-04-23T01:44:07;99528.41;;;14.62;100.00
5522;BME280;2783;48.730;8.006;2023-04-23T01:46:32;99531.69;;;14.67;100.00
5522;BME280;2783;48.730;8.006;2023-04-23T01:48:58;99532.69;;;14.65;100.00
5522;BME280;2783;48.730;8.006;2023-04-23T01:51:24;99524.94;;;14.60;100.00
5522;BME280;2783;48.730;8.006;2023-04-23T01:53:49;99526.59;;;14.63;100.00
5522;BME280;2783;48.730;8.006;2023-04-23T01:56:15;99533.66;;;14.64;100.00
5522;BME280;2783;48.730;8.006;2023-04-23T01:58:40;99534.53;;;14.64;100.00
5522;BME280;2783;48.730;8.006;2023-04-23T02:01:05;99537.31;;;14.63;100.00
5522;BME280;2783;48.730;8.006;2023-04-23T02:03:31;99534.53;;;14.64;100.00
5522;BME280;2783;48.730;8.006;2023-04-23T02:05:57;99533.22;;;14.71;100.00
5522;BME280;2783;48.730;8.006;2023-04-23T02:08:23;99537.38;;;14.77;100.00
5522;BME280;2783;48.730;8.006;2023-04-23T02:10:48;99536.66;;;14.73;100.00
5522;BME280;2783;48.730;8.006;2023-04-23T02:13:14;99543.00;;;14.72;100.00
5522;BME280;2783;48.730;8.006;2023-04-23T02:15:39;99497.94;;;14.49;100.00
5522;BME280;2783;48.730;8.006;2023-04-23T02:18:07;99532.47;;;14.69;100.00
5522;BME280;2783;48.730;8.006;2023-04-23T02:20:32;99532.28;;;14.72;100.00
5522;BME280;2783;48.730;8.006;2023-04-23T02:22:57;99543.78;;;14.74;100.00
5522;BME280;2783;48.730;8.006;2023-04-23T02:25:22;99532.00;;;14.77;100.00
5522;BME280;2783;48.730;8.006;2023-04-23T02:27:48;99527.72;;;14.74;100.00
5522;BME280;2783;48.730;8.006;2023-04-23T02:30:13;99529.00;;;14.67;100.00
5522;BME280;2783;48.730;8.006;2023-04-23T02:32:39;99528.72;;;14.72;100.00
5522;BME280;2783;48.730;8.006;2023-04-23T02:35:04;99524.75;;;14.79;100.00
5522;BME280;2783;48.730;8.006;2023-04-23T02:37:33;99525.44;;;14.82;100.00
5522;BME280;2783;48.730;8.006;2023-04-23T02:39:59;99516.81;;;14.77;100.00
5522;BME280;2783;48.730;8.006;2023-04-23T02:42:24;99512.66;;;14.72;100.00
5522;BME280;2783;48.730;8.006;2023-04-23T02:44:50;99520.78;;;14.70;100.00
5522;BME280;2783;48.730;8.006;2023-04-23T02:47:15;99516.50;;;14.68;100.00
5522;BME280;2783;48.730;8.006;2023-04-23T02:49:41;99526.31;;;14.67;100.00
5522;BME280;2783;48.730;8.006;2023-04-23T02:52:06;99528.03;;;14.68;100.00
5522;BME280;2783;48.730;8.006;2023-04-23T02:54:31;99530.72;;;14.68;100.00
5522;BME280;2783;48.730;8.006;2023-04-23T02:56:57;99533.22;;;14.71;100.00
5522;BME280;2783;48.730;8.006;2023-04-23T02:59:22;99536.75;;;14.72;100.00
5522;BME280;2783;48.730;8.006;2023-04-23T03:01:48;99529.25;;;14.78;100.00
5522;BME280;2783;48.730;8.006;2023-04-23T03:04:13;99536.16;;;14.82;100.00
5522;BME280;2783;48.730;8.006;2023-04-23T03:06:38;99525.97;;;14.89;100.00
5522;BME280;2783;48.730;8.006;2023-04-23T03:09:03;99523.38;;;14.87;100.00
5522;BME280;2783;48.730;8.006;2023-04-23T03:11:29;99525.34;;;14.84;100.00
5522;BME280;2783;48.730;8.006;2023-04-23T03:13:54;99532.88;;;14.77;100.00
5522;BME280;2783;48.730;8.006;2023-04-23T03:16:20;99529.59;;;14.72;100.00
5522;BME280;2783;48.730;8.006;2023-04-23T03:18:45;99530.22;;;14.77;100.00
5522;BME280;2783;48.730;8.006;2023-04-23T03:21:10;99530.81;;;14.82;100.00
5522;BME280;2783;48.730;8.006;2023-04-23T03:23:36;99531.41;;;14.87;100.00
5522;BME280;2783;48.730;8.006;2023-04-23T03:26:01;99524.50;;;14.83;100.00
5522;BME280;2783;48.730;8.006;2023-04-23T03:28:26;99535.88;;;14.87;100.00
5522;BME280;2783;48.730;8.006;2023-04-23T03:30:51;99532.53;;;14.83;100.00
5522;BME280;2783;48.730;8.006;2023-04-23T03:33:17;99537.97;;;14.82;100.00
5522;BME280;2783;48.730;8.006;2023-04-23T03:35:42;99538.25;;;14.77;100.00
5522;BME280;2783;48.730;8.006;2023-04-23T03:38:07;99536.84;;;14.86;100.00
5522;BME280;2783;48.730;8.006;2023-04-23T03:40:33;99534.84;;;14.89;100.00
5522;BME280;2783;48.730;8.006;2023-04-23T03:42:58;99539.06;;;14.93;100.00
5522;BME280;2783;48.730;8.006;2023-04-23T03:45:24;99542.88;;;14.89;100.00
5522;BME280;2783;48.730;8.006;2023-04-23T03:47:49;99546.69;;;14.85;100.00
5522;BME280;2783;48.730;8.006;2023-04-23T03:50:14;99546.50;;;14.88;100.00
5522;BME280;2783;48.730;8.006;2023-04-23T03:52:41;99558.78;;;14.92;100.00
5522;BME280;2783;48.730;8.006;2023-04-23T03:55:07;99547.97;;;14.94;100.00
5522;BME280;2783;48.730;8.006;2023-04-23T03:57:32;99554.97;;;14.96;100.00
5522;BME280;2783;48.730;8.006;2023-04-23T03:59:57;99552.28;;;14.96;100.00
5522;BME280;2783;48.730;8.006;2023-04-23T04:02:23;99544.25;;;14.96;100.00
5522;BME280;2783;48.730;8.006;2023-04-23T04:04:48;99544.44;;;14.93;100.00
5522;BME280;2783;48.730;8.006;2023-04-23T04:07:15;99547.09;;;14.93;100.00
5522;BME280;2783;48.730;8.006;2023-04-23T04:09:41;99541.94;;;14.90;100.00
5522;BME280;2783;48.730;8.006;2023-04-23T04:12:06;99546.50;;;14.88;100.00
5522;BME280;2783;48.730;8.006;2023-04-23T04:14:31;99540.13;;;14.91;100.00
5522;BME280;2783;48.730;8.006;2023-04-23T04:16:57;99540.03;;;14.92;100.00
5522;BME280;2783;48.730;8.006;2023-04-23T04:19:22;99535.63;;;14.91;100.00
5522;BME280;2783;48.730;8.006;2023-04-23T04:21:48;99529.56;;;14.88;100.00
5522;BME280;2783;48.730;8.006;2023-04-23T04:24:14;99532.63;;;14.82;100.00
5522;BME280;2783;48.730;8.006;2023-04-23T04:26:39;99527.53;;;14.77;100.00
5522;BME280;2783;48.730;8.006;2023-04-23T04:29:05;99522.50;;;14.71;100.00
5522;BME280;2783;48.730;8.006;2023-04-23T04:31:30;99527.44;;;14.63;100.00
5522;BME280;2783;48.730;8.006;2023-04-23T04:33:56;99524.75;;;14.63;100.00
5522;BME280;2783;48.730;8.006;2023-04-23T04:36:22;99526.59;;;14.63;100.00
5522;BME280;2783;48.730;8.006;2023-04-23T04:38:49;99525.13;;;14.57;100.00
5522;BME280;2783;48.730;8.006;2023-04-23T04:41:15;99517.34;;;14.52;100.00
5522;BME280;2783;48.730;8.006;2023-04-23T04:43:41;99518.38;;;14.50;100.00
5522;BME280;2783;48.730;8.006;2023-04-23T04:46:07;99521.22;;;14.47;100.00
5522;BME280;2783;48.730;8.006;2023-04-23T04:48:35;99526.50;;;14.48;100.00
5522;BME280;2783;48.730;8.006;2023-04-23T04:51:00;99527.63;;;14.44;100.00
5522;BME280;2783;48.730;8.006;2023-04-23T04:53:26;99532.28;;;14.41;100.00
5522;BME280;2783;48.730;8.006;2023-04-23T04:55:51;99538.41;;;14.43;100.00
5522;BME280;2783;48.730;8.006;2023-04-23T04:58:16;99532.28;;;14.41;100.00
5522;BME280;2783;48.730;8.006;2023-04-23T05:00:41;99524.34;;;14.39;100.00
5522;BME280;2783;48.730;8.006;2023-04-23T05:03:07;99522.88;;;14.34;100.00
5522;BME280;2783;48.730;8.006;2023-04-23T05:05:32;99523.91;;;14.31;100.00
5522;BME280;2783;48.730;8.006;2023-04-23T05:07:58;99528.22;;;14.34;100.00
5522;BME280;2783;48.730;8.006;2023-04-23T05:10:26;99522.69;;;14.37;100.00
5522;BME280;2783;48.730;8.006;2023-04-23T05:12:51;99531.84;;;14.33;100.00
5522;BME280;2783;48.730;8.006;2023-04-23T05:15:17;99531.84;;;14.33;100.00
5522;BME280;2783;48.730;8.006;2023-04-23T05:17:42;99527.09;;;14.38;100.00
5522;BME280;2783;48.730;8.006;2023-04-23T05:20:08;99522.38;;;14.43;100.00
5522;BME280;2783;48.730;8.006;2023-04-23T05:22:38;99523.72;;;14.50;100.00
5522;BME280;2783;48.730;8.006;2023-04-23T05:25:03;99522.19;;;14.46;100.00
5522;BME280;2783;48.730;8.006;2023-04-23T05:27:29;99521.91;;;14.35;100.00
5522;BME280;2783;48.730;8.006;2023-04-23T05:29:54;99519.22;;;14.35;100.00
5522;BME280;2783;48.730;8.006;2023-04-23T05:32:19;99518.72;;;14.44;100.00
5522;BME280;2783;48.730;8.006;2023-04-23T05:34:45;99526.81;;;14.58;100.00
5522;BME280;2783;48.730;8.006;2023-04-23T05:37:10;99519.41;;;14.63;100.00
5522;BME280;2783;48.730;8.006;2023-04-23T05:39:36;99521.84;;;14.68;100.00
5522;BME280;2783;48.730;8.006;2023-04-23T05:42:01;99529.06;;;14.81;100.00
5522;BME280;2783;48.730;8.006;2023-04-23T05:44:27;99526.97;;;14.86;100.00
5522;BME280;2783;48.730;8.006;2023-04-23T05:46:52;99528.34;;;15.09;100.00
5522;BME280;2783;48.730;8.006;2023-04-23T05:49:18;99517.69;;;15.52;100.00
5522;BME280;2783;48.730;8.006;2023-04-23T05:51:43;99519.56;;;16.22;100.00
5522;BME280;2783;48.730;8.006;2023-04-23T05:54:08;99513.91;;;17.08;100.00
5522;BME280;2783;48.730;8.006;2023-04-23T05:56:34;99516.03;;;17.42;94.67
5522;BME280;2783;48.730;8.006;2023-04-23T05:58:59;99520.41;;;17.31;89.68
5522;BME280;2783;48.730;8.006;2023-04-23T06:01:24;99529.75;;;16.98;88.59
5522;BME280;2783;48.730;8.006;2023-04-23T06:03:49;99526.78;;;16.62;91.33
5522;BME280;2783;48.730;8.006;2023-04-23T06:06:15;99521.16;;;16.39;91.90
5522;BME280;2783;48.730;8.006;2023-04-23T06:08:40;99518.28;;;16.00;94.18
5522;BME280;2783;48.730;8.006;2023-04-23T06:11:05;99519.28;;;15.85;95.24
5522;BME280;2783;48.730;8.006;2023-04-23T06:13:30;99516.38;;;15.59;96.93
5522;BME280;2783;48.730;8.006;2023-04-23T06:15:56;99514.78;;;15.41;97.53
5522;BME280;2783;48.730;8.006;2023-04-23T06:18:21;99525.31;;;15.44;98.62
5522;BME280;2783;48.730;8.006;2023-04-23T06:20:47;99516.69;;;15.39;99.63
5522;BME280;2783;48.730;8.006;2023-04-23T06:23:12;99516.56;;;15.70;99.58
5522;BME280;2783;48.730;8.006;2023-04-23T06:25:38;99515.78;;;16.53;97.34
5522;BME280;2783;48.730;8.006;2023-04-23T06:28:03;99503.06;;;17.22;93.50
5522;BME280;2783;48.730;8.006;2023-04-23T06:30:28;99512.34;;;17.31;88.13
5522;BME280;2783;48.730;8.006;2023-04-23T06:32:54;99507.97;;;17.03;88.08
5522;BME280;2783;48.730;8.006;2023-04-23T06:35:19;99515.31;;;16.87;87.37
5522;BME280;2783;48.730;8.006;2023-04-23T06:37:44;99496.56;;;16.99;87.73
5522;BME280;2783;48.730;8.006;2023-04-23T06:40:10;99499.66;;;17.33;88.95
5522;BME280;2783;48.730;8.006;2023-04-23T06:42:35;99496.41;;;17.54;87.19
5522;BME280;2783;48.730;8.006;2023-04-23T06:45:00;99493.28;;;17.85;84.88
5522;BME280;2783;48.730;8.006;2023-04-23T06:47:29;99490.97;;;18.29;84.20
5522;BME280;2783;48.730;8.006;2023-04-23T06:49:54;99492.13;;;18.51;80.68
5522;BME280;2783;48.730;8.006;2023-04-23T06:52:20;99494.16;;;18.60;80.95
5522;BME280;2783;48.730;8.006;2023-04-23T06:54:45;99492.41;;;18.71;78.60
5522;BME280;2783;48.730;8.006;2023-04-23T06:57:10;99486.19;;;18.82;77.80
5522;BME280;2783;48.730;8.006;2023-04-23T06:59:35;99492.72;;;18.67;74.70
5522;BME280;2783;48.730;8.006;2023-04-23T07:02:01;99482.19;;;18.64;75.67
5522;BME280;2783;48.730;8.006;2023-04-23T07:04:26;99480.19;;;18.78;75.74
5522;BME280;2783;48.730;8.006;2023-04-23T07:06:51;99485.97;;;18.85;76.05
5522;BME280;2783;48.730;8.006;2023-04-23T07:09:17;99482.75;;;19.27;75.23
5522;BME280;2783;48.730;8.006;2023-04-23T07:11:42;99483.72;;;19.60;73.91
5522;BME280;2783;48.730;8.006;2023-04-23T07:14:07;99478.75;;;19.78;71.84
5522;BME280;2783;48.730;8.006;2023-04-23T07:16:33;99484.38;;;19.75;70.68
5522;BME280;2783;48.730;8.006;2023-04-23T07:18:59;99478.75;;;19.89;70.83
5522;BME280;2783;48.730;8.006;2023-04-23T07:21:25;99482.66;;;19.74;68.56
5522;BME280;2783;48.730;8.006;2023-04-23T07:23:51;99477.75;;;19.90;69.13
5522;BME280;2783;48.730;8.006;2023-04-23T07:26:17;99475.19;;;19.78;69.35
5522;BME280;2783;48.730;8.006;2023-04-23T07:28:42;99474.50;;;20.31;69.21
5522;BME280;2783;48.730;8.006;2023-04-23T07:31:07;99473.38;;;20.33;66.96
5522;BME280;2783;48.730;8.006;2023-04-23T07:33:33;99470.19;;;20.93;67.24
5522;BME280;2783;48.730;8.006;2023-04-23T07:35:58;99459.13;;;20.96;64.05
5522;BME280;2783;48.730;8.006;2023-04-23T07:38:23;99455.47;;;20.97;62.64
5522;BME280;2783;48.730;8.006;2023-04-23T07:40:48;99454.41;;;21.09;63.07
5522;BME280;2783;48.730;8.006;2023-04-23T07:43:14;99448.31;;;21.48;62.09
5522;BME280;2783;48.730;8.006;2023-04-23T07:45:40;99455.28;;;21.82;60.57
5522;BME280;2783;48.730;8.006;2023-04-23T07:48:06;99446.47;;;22.20;58.81
5522;BME280;2783;48.730;8.006;2023-04-23T07:50:31;99448.72;;;22.45;58.18
5522;BME280;2783;48.730;8.006;2023-04-23T07:52:56;99449.09;;;22.80;54.48
5522;BME280;2783;48.730;8.006;2023-04-23T07:55:22;99450.38;;;22.86;56.86
5522;BME280;2783;48.730;8.006;2023-04-23T07:57:47;99447.41;;;23.17;54.91
5522;BME280;2783;48.730;8.006;2023-04-23T08:00:12;99439.72;;;23.41;54.38
5522;BME280;2783;48.730;8.006;2023-04-23T08:02:38;99440.03;;;23.29;53.01
5522;BME280;2783;48.730;8.006;2023-04-23T08:05:03;99439.16;;;23.28;53.88
5522;BME280;2783;48.730;8.006;2023-04-23T08:07:29;99432.94;;;23.74;51.65
5522;BME280;2783;48.730;8.006;2023-04-23T08:09:54;99426.59;;;23.93;53.29
5522;BME280;2783;48.730;8.006;2023-04-23T08:12:19;99427.75;;;24.27;53.58
5522;BME280;2783;48.730;8.006;2023-04-23T08:14:45;99425.84;;;24.10;49.66
5522;BME280;2783;48.730;8.006;2023-04-23T08:17:11;99430.00;;;23.01;49.91
5522;BME280;2783;48.730;8.006;2023-04-23T08:19:36;99418.06;;;22.54;53.78
5522;BME280;2783;48.730;8.006;2023-04-23T08:22:01;99419.97;;;22.63;51.80
5522;BME280;2783;48.730;8.006;2023-04-23T08:24:27;99411.69;;;22.74;53.94
5522;BME280;2783;48.730;8.006;2023-04-23T08:26:52;99413.13;;;23.16;52.44
5522;BME280;2783;48.730;8.006;2023-04-23T08:29:17;99410.53;;;23.24;51.48
5522;BME280;2783;48.730;8.006;2023-04-23T08:31:43;99405.41;;;22.83;51.28
5522;BME280;2783;48.730;8.006;2023-04-23T08:34:08;99407.38;;;21.83;54.17
5522;BME280;2783;48.730;8.006;2023-04-23T08:36:33;99401.03;;;21.73;56.94
5522;BME280;2783;48.730;8.006;2023-04-23T08:38:58;99402.28;;;21.69;56.45
5522;BME280;2783;48.730;8.006;2023-04-23T08:41:26;99406.47;;;21.32;58.76
5522;BME280;2783;48.730;8.006;2023-04-23T08:46:36;99405.97;;;21.38;58.05
5522;BME280;2783;48.730;8.006;2023-04-23T08:49:04;99405.38;;;21.85;56.72
5522;BME280;2783;48.730;8.006;2023-04-23T08:51:31;99400.69;;;22.17;56.74
5522;BME280;2783;48.730;8.006;2023-04-23T08:54:02;99398.53;;;22.60;54.17
5522;BME280;2783;48.730;8.006;2023-04-23T08:56:29;99398.41;;;22.71;54.83
5522;BME280;2783;48.730;8.006;2023-04-23T08:58:56;99397.84;;;22.58;51.86
5522;BME280;2783;48.730;8.006;2023-04-23T09:01:22;99394.19;;;22.39;52.12
5522;BME280;2783;48.730;8.006;2023-04-23T09:03:48;99395.31;;;22.36;52.03
5522;BME280;2783;48.730;8.006;2023-04-23T09:06:13;99387.44;;;22.82;50.86
5522;BME280;2783;48.730;8.006;2023-04-23T09:08:38;99385.13;;;22.97;49.74
5522;BME280;2783;48.730;8.006;2023-04-23T09:11:04;99378.56;;;23.18;49.51
5522;BME280;2783;48.730;8.006;2023-04-23T09:13:30;99372.50;;;23.63;47.30
5522;BME280;2783;48.730;8.006;2023-04-23T09:15:56;99372.06;;;24.04;47.12
5522;BME280;2783;48.730;8.006;2023-04-23T09:18:21;99368.63;;;24.11;46.84
5522;BME280;2783;48.730;8.006;2023-04-23T09:20:46;99372.28;;;23.83;45.29
5522;BME280;2783;48.730;8.006;2023-04-23T09:23:13;99366.09;;;24.00;45.62
5522;BME280;2783;48.730;8.006;2023-04-23T09:25:39;99362.63;;;24.08;46.22
5522;BME280;2783;48.730;8.006;2023-04-23T09:28:06;99366.09;;;24.00;47.31
5522;BME280;2783;48.730;8.006;2023-04-23T09:30:31;99356.03;;;24.37;46.38
5522;BME280;2783;48.730;8.006;2023-04-23T09:33:03;99355.94;;;23.93;45.92
5522;BME280;2783;48.730;8.006;2023-04-23T09:35:29;99356.81;;;23.57;47.02
5522;BME280;2783;48.730;8.006;2023-04-23T09:37:56;99357.56;;;23.20;45.42
5522;BME280;2783;48.730;8.006;2023-04-23T09:40:22;99343.34;;;23.65;45.84
5522;BME280;2783;48.730;8.006;2023-04-23T09:42:48;99338.03;;;24.09;45.75
5522;BME280;2783;48.730;8.006;2023-04-23T09:45:14;99342.53;;;24.63;43.17
5522;BME280;2783;48.730;8.006;2023-04-23T09:47:41;99346.81;;;23.84;41.78
5522;BME280;2783;48.730;8.006;2023-04-23T09:50:12;99333.84;;;23.41;43.20
5522;BME280;2783;48.730;8.006;2023-04-23T09:52:37;99334.03;;;22.92;43.95
5522;BME280;2783;48.730;8.006;2023-04-23T09:55:03;99324.34;;;22.61;45.67
5522;BME280;2783;48.730;8.006;2023-04-23T09:57:34;99333.84;;;22.27;45.30
5522;BME280;2783;48.730;8.006;2023-04-23T10:00:06;99330.69;;;22.22;44.52
5522;BME280;2783;48.730;8.006;2023-04-23T10:02:36;99322.63;;;22.60;45.31
5522;BME280;2783;48.730;8.006;2023-04-23T10:05:03;99322.03;;;23.04;43.66
5522;BME280;2783;48.730;8.006;2023-04-23T10:07:38;99320.63;;;23.93;42.20
5522;BME280;2783;48.730;8.006;2023-04-23T10:10:03;99319.06;;;23.63;44.17
5522;BME280;2783;48.730;8.006;2023-04-23T10:12:29;99317.31;;;23.72;43.20
5522;BME280;2783;48.730;8.006;2023-04-23T10:14:54;99310.44;;;23.77;43.07
5522;BME280;2783;48.730;8.006;2023-04-23T10:17:21;99305.09;;;23.85;43.62
5522;BME280;2783;48.730;8.006;2023-04-23T10:19:46;99304.03;;;23.96;43.95
5522;BME280;2783;48.730;8.006;2023-04-23T10:22:13;99309.75;;;23.66;42.74
5522;BME280;2783;48.730;8.006;2023-04-23T10:24:40;99309.72;;;23.38;44.35
5522;BME280;2783;48.730;8.006;2023-04-23T10:27:10;99300.97;;;23.44;43.86
5522;BME280;2783;48.730;8.006;2023-04-23T10:29:35;99298.69;;;24.13;44.63
5522;BME280;2783;48.730;8.006;2023-04-23T10:32:02;99289.72;;;24.48;43.01
5522;BME280;2783;48.730;8.006;2023-04-23T10:34:28;99296.28;;;24.63;42.07
5522;BME280;2783;48.730;8.006;2023-04-23T10:36:53;99286.81;;;24.67;41.85
5522;BME280;2783;48.730;8.006;2023-04-23T10:39:20;99286.44;;;24.62;43.02
5522;BME280;2783;48.730;8.006;2023-04-23T10:41:46;99272.53;;;24.83;41.81
5522;BME280;2783;48.730;8.006;2023-04-23T10:44:12;99275.56;;;24.97;40.73
5522;BME280;2783;48.730;8.006;2023-04-23T10:46:45;99270.63;;;25.26;40.02
5522;BME280;2783;48.730;8.006;2023-04-23T10:49:14;99273.19;;;25.28;39.75
5522;BME280;2783;48.730;8.006;2023-04-23T10:51:40;99259.97;;;25.58;38.65
5522;BME280;2783;48.730;8.006;2023-04-23T10:54:09;99258.16;;;26.17;39.15
5522;BME280;2783;48.730;8.006;2023-04-23T10:56:37;99251.25;;;25.96;37.08
5522;BME280;2783;48.730;8.006;2023-04-23T10:59:04;99250.72;;;26.43;39.09
5522;BME280;2783;48.730;8.006;2023-04-23T11:01:30;99248.00;;;26.51;37.78
5522;BME280;2783;48.730;8.006;2023-04-23T11:03:55;99246.25;;;26.18;37.52
5522;BME280;2783;48.730;8.006;2023-04-23T11:11:51;99222.63;;;26.90;37.21
5522;BME280;2783;48.730;8.006;2023-04-23T11:14:18;99215.59;;;27.28;36.82
5522;BME280;2783;48.730;8.006;2023-04-23T11:16:43;99217.69;;;26.78;36.00
5522;BME280;2783;48.730;8.006;2023-04-23T11:19:09;99218.19;;;25.91;37.88
5522;BME280;2783;48.730;8.006;2023-04-23T11:24:21;99198.97;;;25.43;38.61
5522;BME280;2783;48.730;8.006;2023-04-23T11:26:47;99205.16;;;25.61;39.63
5522;BME280;2783;48.730;8.006;2023-04-23T11:29:15;99195.78;;;26.06;38.96
5522;BME280;2783;48.730;8.006;2023-04-23T11:31:42;99199.91;;;26.34;37.19
5522;BME280;2783;48.730;8.006;2023-04-23T11:34:07;99190.56;;;25.78;38.17
5522;BME280;2783;48.730;8.006;2023-04-23T11:36:33;99198.88;;;26.19;36.62
5522;BME280;2783;48.730;8.006;2023-04-23T11:38:59;99186.59;;;26.15;36.32
5522;BME280;2783;48.730;8.006;2023-04-23T11:41:27;99195.19;;;25.86;36.77
5522;BME280;2783;48.730;8.006;2023-04-23T11:43:54;99177.59;;;25.64;38.46
5522;BME280;2783;48.730;8.006;2023-04-23T11:46:20;99178.78;;;26.52;38.37
5522;BME280;2783;48.730;8.006;2023-04-23T11:48:47;99172.91;;;27.19;36.47
5522;BME280;2783;48.730;8.006;2023-04-23T11:51:12;99167.44;;;27.19;35.47
5522;BME280;2783;48.730;8.006;2023-04-23T11:53:43;99165.13;;;26.84;37.09
5522;BME280;2783;48.730;8.006;2023-04-23T11:56:08;99165.81;;;26.86;37.84
5522;BME280;2783;48.730;8.006;2023-04-23T11:58:34;99154.19;;;27.55;36.64
5522;BME280;2783;48.730;8.006;2023-04-23T12:00:59;99150.25;;;27.88;35.56
5522;BME280;2783;48.730;8.006;2023-04-23T12:03:26;99138.06;;;27.37;36.61
5522;BME280;2783;48.730;8.006;2023-04-23T12:05:52;99143.81;;;26.79;36.14
5522;BME280;2783;48.730;8.006;2023-04-23T12:08:20;99146.91;;;26.52;36.32
5522;BME280;2783;48.730;8.006;2023-04-23T12:10:49;99134.09;;;26.61;37.12
5522;BME280;2783;48.730;8.006;2023-04-23T12:13:15;99135.28;;;27.45;35.44
5522;BME280;2783;48.730;8.006;2023-04-23T12:15:45;99136.47;;;26.88;34.73
5522;BME280;2783;48.730;8.006;2023-04-23T12:18:10;99114.00;;;27.25;36.02
5522;BME280;2783;48.730;8.006;2023-04-23T12:20:35;99084.50;;;26.73;35.89
5522;BME280;2783;48.730;8.006;2023-04-23T12:23:04;99108.31;;;26.87;35.01
5522;BME280;2783;48.730;8.006;2023-04-23T12:25:30;99096.75;;;27.32;35.25
5522;BME280;2783;48.730;8.006;2023-04-23T12:27:59;99101.69;;;26.90;35.04
5522;BME280;2783;48.730;8.006;2023-04-23T12:30:28;99095.72;;;26.86;35.53
5522;BME280;2783;48.730;8.006;2023-04-23T12:32:59;99103.44;;;26.67;35.28
5522;BME280;2783;48.730;8.006;2023-04-23T12:35:49;99092.97;;;27.41;36.81
5522;BME280;2783;48.730;8.006;2023-04-23T12:38:21;99092.13;;;27.41;34.39
5522;BME280;2783;48.730;8.006;2023-04-23T12:40:54;99096.44;;;27.19;35.26
5522;BME280;2783;48.730;8.006;2023-04-23T12:43:20;99087.94;;;27.14;34.99
5522;BME280;2783;48.730;8.006;2023-04-23T12:45:45;99078.91;;;27.05;35.70
5522;BME280;2783;48.730;8.006;2023-04-23T12:48:11;99079.03;;;27.59;36.30
5522;BME280;2783;48.730;8.006;2023-04-23T12:50:36;99077.53;;;27.79;36.41
5522;BME280;2783;48.730;8.006;2023-04-23T12:53:02;99066.34;;;27.35;34.89
5522;BME280;2783;48.730;8.006;2023-04-23T12:55:27;99074.69;;;27.72;35.57
5522;BME280;2783;48.730;8.006;2023-04-23T12:57:52;99080.91;;;26.65;35.57
5522;BME280;2783;48.730;8.006;2023-04-23T13:00:18;99057.06;;;26.67;36.51
5522;BME280;2783;48.730;8.006;2023-04-23T13:02:43;99069.44;;;25.57;37.68
5522;BME280;2783;48.730;8.006;2023-04-23T13:05:08;99065.38;;;25.69;36.96
5522;BME280;2783;48.730;8.006;2023-04-23T13:07:34;99057.44;;;26.16;38.03
5522;BME280;2783;48.730;8.006;2023-04-23T13:09:59;99057.78;;;26.29;36.80
5522;BME280;2783;48.730;8.006;2023-04-23T13:12:24;99051.91;;;26.56;35.62
5522;BME280;2783;48.730;8.006;2023-04-23T13:14:50;99044.13;;;26.37;36.90
5522;BME280;2783;48.730;8.006;2023-04-23T13:17:15;99049.63;;;26.13;36.60
5522;BME280;2783;48.730;8.006;2023-04-23T13:19:40;99035.47;;;25.27;37.66
5522;BME280;2783;48.730;8.006;2023-04-23T13:22:06;99043.16;;;25.24;38.53